sensor_id;sensor_type;location;lat;lon;timestamp;temperature;humidity
33594;DHT22;19920;52.242;20.940;2022-08-21T00:00:19;22.70;99.90
33594;DHT22;19920;52.242;20.940;2022-08-21T00:02:48;22.60;99.90
33594;DHT22;19920;52.242;20.940;2022-08-21T00:05:14;22.60;99.90
33594;DHT22;19920;52.242;20.940;2022-08-21T00:07:40;22.50;99.90
33594;DHT22;19920;52.242;20.940;2022-08-21T00:10:06;22.50;99.90
33594;DHT22;19920;52.242;20.940;2022-08-21T00:12:32;22.50;99.90
33594;DHT22;19920;52.242;20.940;2022-08-21T00:14:58;22.40;99.90
33594;DHT22;19920;52.242;20.940;2022-08-21T00:17:23;22.40;99.90
33594;DHT22;19920;52.242;20.940;2022-08-21T00:19:49;22.40;99.90
33594;DHT22;19920;52.242;20.940;2022-08-21T00:22:14;22.30;99.90
33594;DHT22;19920;52.242;20.940;2022-08-21T00:24:40;22.20;99.90
33594;DHT22;19920;52.242;20.940;2022-08-21T00:27:05;22.10;99.90
33594;DHT22;19920;52.242;20.940;2022-08-21T00:29:31;22.10;99.90
33594;DHT22;19920;52.242;20.940;2022-08-21T00:31:56;22.10;99.90
33594;DHT22;19920;52.242;20.940;2022-08-21T00:34:22;22.10;99.90
33594;DHT22;19920;52.242;20.940;2022-08-21T00:36:47;22.00;99.90
33594;DHT22;19920;52.242;20.940;2022-08-21T00:39:13;21.90;99.90
33594;DHT22;19920;52.242;20.940;2022-08-21T00:41:39;21.90;99.90
33594;DHT22;19920;52.242;20.940;2022-08-21T00:44:10;21.90;99.90
33594;DHT22;19920;52.242;20.940;2022-08-21T00:46:36;21.90;99.90
33594;DHT22;19920;52.242;20.940;2022-08-21T00:49:02;21.90;99.90
33594;DHT22;19920;52.242;20.940;2022-08-21T00:51:30;21.80;99.90
33594;DHT22;19920;52.242;20.940;2022-08-21T00:53:59;21.80;99.90
33594;DHT22;19920;52.242;20.940;2022-08-21T00:56:26;21.80;99.90
33594;DHT22;19920;52.242;20.940;2022-08-21T00:58:52;21.70;99.90
33594;DHT22;19920;52.242;20.940;2022-08-21T01:01:19;21.70;99.90
33594;DHT22;19920;52.242;20.940;2022-08-21T01:03:45;21.70;99.90
33594;DHT22;19920;52.242;20.940;2022-08-21T01:06:11;21.70;99.90
33594;DHT22;19920;52.242;20.940;2022-08-21T01:08:37;21.60;99.90
33594;DHT22;19920;52.242;20.940;2022-08-21T01:11:03;21.60;99.90
33594;DHT22;19920;52.242;20.940;2022-08-21T01:13:29;21.60;99.90
33594;DHT22;19920;52.242;20.940;2022-08-21T01:15:56;21.60;99.90
33594;DHT22;19920;52.242;20.940;2022-08-21T01:18:22;21.60;99.90
33594;DHT22;19920;52.242;20.940;2022-08-21T01:20:58;21.60;99.90
33594;DHT22;19920;52.242;20.940;2022-08-21T01:23:23;21.50;99.90
33594;DHT22;19920;52.242;20.940;2022-08-21T01:25:49;21.50;99.90
33594;DHT22;19920;52.242;20.940;2022-08-21T01:28:14;21.50;99.90
33594;DHT22;19920;52.242;20.940;2022-08-21T01:30:40;21.50;99.90
33594;DHT22;19920;52.242;20.940;2022-08-21T01:33:07;21.50;99.90
33594;DHT22;19920;52.242;20.940;2022-08-21T01:35:32;21.50;99.90
33594;DHT22;19920;52.242;20.940;2022-08-21T01:37:58;21.40;99.90
33594;DHT22;19920;52.242;20.940;2022-08-21T01:40:23;21.40;99.90
33594;DHT22;19920;52.242;20.940;2022-08-21T01:42:49;21.40;99.90
33594;DHT22;19920;52.242;20.940;2022-08-21T01:45:15;21.40;99.90
33594;DHT22;19920;52.242;20.940;2022-08-21T01:47:41;21.40;99.90
33594;DHT22;19920;52.242;20.940;2022-08-21T01:50:07;21.30;99.90
33594;DHT22;19920;52.242;20.940;2022-08-21T01:52:34;21.30;99.90
33594;DHT22;19920;52.242;20.940;2022-08-21T01:54:59;21.40;99.90
33594;DHT22;19920;52.242;20.940;2022-08-21T01:57:25;21.30;99.90
33594;DHT22;19920;52.242;20.940;2022-08-21T01:59:51;21.30;99.90
33594;DHT22;19920;52.242;20.940;2022-08-21T02:02:16;21.30;99.90
33594;DHT22;19920;52.242;20.940;2022-08-21T02:04:42;21.20;99.90
33594;DHT22;19920;52.242;20.940;2022-08-21T02:07:07;21.20;99.90
33594;DHT22;19920;52.242;20.940;2022-08-21T02:09:33;21.10;99.90
33594;DHT22;19920;52.242;20.940;2022-08-21T02:11:59;21.10;99.90
33594;DHT22;19920;52.242;20.940;2022-08-21T02:14:24;21.10;99.90
33594;DHT22;19920;52.242;20.940;2022-08-21T02:16:50;21.10;99.90
33594;DHT22;19920;52.242;20.940;2022-08-21T02:19:16;21.10;99.90
33594;DHT22;19920;52.242;20.940;2022-08-21T02:21:42;21.00;99.90
33594;DHT22;19920;52.242;20.940;2022-08-21T02:24:07;21.00;99.90
33594;DHT22;19920;52.242;20.940;2022-08-21T02:26:33;21.00;99.90
33594;DHT22;19920;52.242;20.940;2022-08-21T02:28:59;21.00;99.90
33594;DHT22;19920;52.242;20.940;2022-08-21T02:31:25;21.00;99.90
33594;DHT22;19920;52.242;20.940;2022-08-21T02:33:51;20.90;99.90
33594;DHT22;19920;52.242;20.940;2022-08-21T02:36:17;20.90;99.90
33594;DHT22;19920;52.242;20.940;2022-08-21T02:38:43;20.90;99.90
33594;DHT22;19920;52.242;20.940;2022-08-21T02:41:11;20.90;99.90
33594;DHT22;19920;52.242;20.940;2022-08-21T02:43:37;20.90;99.90
33594;DHT22;19920;52.242;20.940;2022-08-21T02:46:03;20.90;99.90
33594;DHT22;19920;52.242;20.940;2022-08-21T02:48:30;20.90;99.90
33594;DHT22;19920;52.242;20.940;2022-08-21T02:50:57;20.90;99.90
33594;DHT22;19920;52.242;20.940;2022-08-21T02:53:24;20.90;99.90
33594;DHT22;19920;52.242;20.940;2022-08-21T02:55:50;20.90;99.90
33594;DHT22;19920;52.242;20.940;2022-08-21T02:58:17;20.80;99.90
33594;DHT22;19920;52.242;20.940;2022-08-21T03:00:43;20.80;99.90
33594;DHT22;19920;52.242;20.940;2022-08-21T03:03:09;20.80;99.90
33594;DHT22;19920;52.242;20.940;2022-08-21T03:05:35;20.80;99.90
33594;DHT22;19920;52.242;20.940;2022-08-21T03:08:03;20.80;99.90
33594;DHT22;19920;52.242;20.940;2022-08-21T03:10:29;20.80;99.90
33594;DHT22;19920;52.242;20.940;2022-08-21T03:12:56;20.80;99.90
33594;DHT22;19920;52.242;20.940;2022-08-21T03:15:22;20.70;99.90
33594;DHT22;19920;52.242;20.940;2022-08-21T03:17:51;20.70;99.90
33594;DHT22;19920;52.242;20.940;2022-08-21T03:20:17;20.70;99.90
33594;DHT22;19920;52.242;20.940;2022-08-21T03:22:43;20.70;99.90
33594;DHT22;19920;52.242;20.940;2022-08-21T03:25:09;20.70;99.90
33594;DHT22;19920;52.242;20.940;2022-08-21T03:27:35;20.80;99.90
33594;DHT22;19920;52.242;20.940;2022-08-21T03:30:03;20.70;99.90
33594;DHT22;19920;52.242;20.940;2022-08-21T03:32:29;20.70;99.90
33594;DHT22;19920;52.242;20.940;2022-08-21T03:34:56;20.60;99.90
33594;DHT22;19920;52.242;20.940;2022-08-21T03:37:23;20.60;99.90
33594;DHT22;19920;52.242;20.940;2022-08-21T03:39:49;20.60;99.90
33594;DHT22;19920;52.242;20.940;2022-08-21T03:42:15;20.60;99.90
33594;DHT22;19920;52.242;20.940;2022-08-21T03:44:41;20.60;99.90
33594;DHT22;19920;52.242;20.940;2022-08-21T03:47:06;20.60;99.90
33594;DHT22;19920;52.242;20.940;2022-08-21T03:49:32;20.60;99.90
33594;DHT22;19920;52.242;20.940;2022-08-21T03:51:58;20.70;99.90
33594;DHT22;19920;52.242;20.940;2022-08-21T03:54:24;20.70;99.90
33594;DHT22;19920;52.242;20.940;2022-08-21T03:56:50;20.70;99.90
33594;DHT22;19920;52.242;20.940;2022-08-21T03:59:17;20.70;99.90
33594;DHT22;19920;52.242;20.940;2022-08-21T04:01:55;20.70;99.90
33594;DHT22;19920;52.242;20.940;2022-08-21T04:04:21;20.70;99.90
33594;DHT22;19920;52.242;20.940;2022-08-21T04:06:46;20.70;99.90
33594;DHT22;19920;52.242;20.940;2022-08-21T04:09:12;20.70;99.90
33594;DHT22;19920;52.242;20.940;2022-08-21T04:11:37;20.80;99.90
33594;DHT22;19920;52.242;20.940;2022-08-21T04:14:03;20.80;99.90
33594;DHT22;19920;52.242;20.940;2022-08-21T04:16:29;20.80;99.90
33594;DHT22;19920;52.242;20.940;2022-08-21T04:18:56;20.80;99.90
33594;DHT22;19920;52.242;20.940;2022-08-21T04:21:21;20.90;99.90
33594;DHT22;19920;52.242;20.940;2022-08-21T04:23:47;20.90;99.90
33594;DHT22;19920;52.242;20.940;2022-08-21T04:26:13;21.00;99.90
33594;DHT22;19920;52.242;20.940;2022-08-21T04:28:39;21.00;99.90
33594;DHT22;19920;52.242;20.940;2022-08-21T04:31:04;21.00;99.90
33594;DHT22;19920;52.242;20.940;2022-08-21T04:33:30;21.00;99.90
33594;DHT22;19920;52.242;20.940;2022-08-21T04:35:55;21.00;99.90
33594;DHT22;19920;52.242;20.940;2022-08-21T04:38:21;21.20;99.90
33594;DHT22;19920;52.242;20.940;2022-08-21T04:40:47;21.20;99.90
33594;DHT22;19920;52.242;20.940;2022-08-21T04:43:13;21.20;99.90
33594;DHT22;19920;52.242;20.940;2022-08-21T04:45:40;21.30;99.90
33594;DHT22;19920;52.242;20.940;2022-08-21T04:48:07;21.40;99.90
33594;DHT22;19920;52.242;20.940;2022-08-21T04:55:50;21.60;99.90
33594;DHT22;19920;52.242;20.940;2022-08-21T04:58:18;21.80;99.90
33594;DHT22;19920;52.242;20.940;2022-08-21T05:00:45;21.90;99.90
33594;DHT22;19920;52.242;20.940;2022-08-21T05:03:12;21.90;99.90
33594;DHT22;19920;52.242;20.940;2022-08-21T05:05:37;22.10;99.90
33594;DHT22;19920;52.242;20.940;2022-08-21T05:08:05;22.20;99.90
33594;DHT22;19920;52.242;20.940;2022-08-21T05:10:32;22.20;99.90
33594;DHT22;19920;52.242;20.940;2022-08-21T05:12:58;22.30;99.90
33594;DHT22;19920;52.242;20.940;2022-08-21T05:15:25;22.30;99.90
33594;DHT22;19920;52.242;20.940;2022-08-21T05:17:50;22.40;99.90
33594;DHT22;19920;52.242;20.940;2022-08-21T05:20:16;22.40;99.90
33594;DHT22;19920;52.242;20.940;2022-08-21T05:22:41;22.40;99.90
33594;DHT22;19920;52.242;20.940;2022-08-21T05:25:07;22.50;99.90
33594;DHT22;19920;52.242;20.940;2022-08-21T05:27:33;22.50;99.90
33594;DHT22;19920;52.242;20.940;2022-08-21T05:30:00;22.40;99.90
33594;DHT22;19920;52.242;20.940;2022-08-21T05:32:26;22.40;99.90
33594;DHT22;19920;52.242;20.940;2022-08-21T05:34:53;22.50;99.90
33594;DHT22;19920;52.242;20.940;2022-08-21T05:37:18;22.60;99.90
33594;DHT22;19920;52.242;20.940;2022-08-21T05:39:44;22.60;99.90
33594;DHT22;19920;52.242;20.940;2022-08-21T05:42:10;22.70;99.90
33594;DHT22;19920;52.242;20.940;2022-08-21T05:44:35;22.60;99.90
33594;DHT22;19920;52.242;20.940;2022-08-21T05:47:07;22.60;99.90
33594;DHT22;19920;52.242;20.940;2022-08-21T05:49:33;22.80;99.90
33594;DHT22;19920;52.242;20.940;2022-08-21T05:51:59;22.70;99.90
33594;DHT22;19920;52.242;20.940;2022-08-21T05:54:25;22.80;99.90
33594;DHT22;19920;52.242;20.940;2022-08-21T05:56:50;22.70;99.90
33594;DHT22;19920;52.242;20.940;2022-08-21T05:59:17;22.80;99.90
33594;DHT22;19920;52.242;20.940;2022-08-21T06:01:43;22.70;99.90
33594;DHT22;19920;52.242;20.940;2022-08-21T06:04:10;22.70;99.90
33594;DHT22;19920;52.242;20.940;2022-08-21T06:06:36;22.60;99.90
33594;DHT22;19920;52.242;20.940;2022-08-21T06:09:02;22.70;99.90
33594;DHT22;19920;52.242;20.940;2022-08-21T06:11:27;22.70;99.90
33594;DHT22;19920;52.242;20.940;2022-08-21T06:13:53;22.70;99.90
33594;DHT22;19920;52.242;20.940;2022-08-21T06:16:18;22.80;99.90
33594;DHT22;19920;52.242;20.940;2022-08-21T06:18:44;22.90;99.90
33594;DHT22;19920;52.242;20.940;2022-08-21T06:21:11;23.00;99.90
33594;DHT22;19920;52.242;20.940;2022-08-21T06:23:36;23.00;99.90
33594;DHT22;19920;52.242;20.940;2022-08-21T06:26:03;23.20;99.90
33594;DHT22;19920;52.242;20.940;2022-08-21T06:28:29;23.10;99.90
33594;DHT22;19920;52.242;20.940;2022-08-21T06:30:55;23.20;99.90
33594;DHT22;19920;52.242;20.940;2022-08-21T06:33:21;23.40;99.90
33594;DHT22;19920;52.242;20.940;2022-08-21T06:35:46;23.50;99.90
33594;DHT22;19920;52.242;20.940;2022-08-21T06:38:12;23.50;99.90
33594;DHT22;19920;52.242;20.940;2022-08-21T06:40:38;23.50;99.90
33594;DHT22;19920;52.242;20.940;2022-08-21T06:43:08;23.60;99.90
33594;DHT22;19920;52.242;20.940;2022-08-21T06:45:34;23.70;99.90
33594;DHT22;19920;52.242;20.940;2022-08-21T06:47:59;23.70;99.90
33594;DHT22;19920;52.242;20.940;2022-08-21T06:50:25;23.70;99.90
33594;DHT22;19920;52.242;20.940;2022-08-21T06:52:57;23.80;99.90
33594;DHT22;19920;52.242;20.940;2022-08-21T06:55:23;23.80;99.90
33594;DHT22;19920;52.242;20.940;2022-08-21T06:57:48;23.90;99.90
33594;DHT22;19920;52.242;20.940;2022-08-21T07:00:14;23.90;99.90
33594;DHT22;19920;52.242;20.940;2022-08-21T07:02:40;23.90;99.90
33594;DHT22;19920;52.242;20.940;2022-08-21T07:05:05;24.00;99.90
33594;DHT22;19920;52.242;20.940;2022-08-21T07:07:31;24.10;99.90
33594;DHT22;19920;52.242;20.940;2022-08-21T07:09:56;24.10;99.90
33594;DHT22;19920;52.242;20.940;2022-08-21T07:12:22;24.10;99.90
33594;DHT22;19920;52.242;20.940;2022-08-21T07:14:48;24.10;99.90
33594;DHT22;19920;52.242;20.940;2022-08-21T07:17:13;24.20;99.90
33594;DHT22;19920;52.242;20.940;2022-08-21T07:19:39;24.30;99.90
33594;DHT22;19920;52.242;20.940;2022-08-21T07:22:05;24.30;99.90
33594;DHT22;19920;52.242;20.940;2022-08-21T07:24:30;24.30;99.90
33594;DHT22;19920;52.242;20.940;2022-08-21T07:26:56;24.40;99.90
33594;DHT22;19920;52.242;20.940;2022-08-21T07:29:21;24.40;99.90
33594;DHT22;19920;52.242;20.940;2022-08-21T07:31:47;24.40;99.90
33594;DHT22;19920;52.242;20.940;2022-08-21T07:34:12;24.40;99.90
33594;DHT22;19920;52.242;20.940;2022-08-21T07:36:38;24.50;99.90
33594;DHT22;19920;52.242;20.940;2022-08-21T07:39:03;24.60;99.90
33594;DHT22;19920;52.242;20.940;2022-08-21T07:41:29;24.70;99.90
33594;DHT22;19920;52.242;20.940;2022-08-21T07:43:58;24.70;99.90
33594;DHT22;19920;52.242;20.940;2022-08-21T07:46:24;24.70;99.90
33594;DHT22;19920;52.242;20.940;2022-08-21T07:48:51;24.60;99.90
33594;DHT22;19920;52.242;20.940;2022-08-21T07:51:17;24.60;99.90
33594;DHT22;19920;52.242;20.940;2022-08-21T07:53:47;24.60;99.90
33594;DHT22;19920;52.242;20.940;2022-08-21T07:56:13;24.70;99.90
33594;DHT22;19920;52.242;20.940;2022-08-21T07:58:38;24.80;99.90
33594;DHT22;19920;52.242;20.940;2022-08-21T08:01:05;24.90;99.90
33594;DHT22;19920;52.242;20.940;2022-08-21T08:03:31;25.00;99.90
33594;DHT22;19920;52.242;20.940;2022-08-21T08:05:56;25.10;99.90
33594;DHT22;19920;52.242;20.940;2022-08-21T08:08:22;25.20;99.90
33594;DHT22;19920;52.242;20.940;2022-08-21T08:10:47;25.20;99.90
33594;DHT22;19920;52.242;20.940;2022-08-21T08:13:15;25.20;99.90
33594;DHT22;19920;52.242;20.940;2022-08-21T08:15:40;25.30;99.90
33594;DHT22;19920;52.242;20.940;2022-08-21T08:18:06;25.40;99.90
33594;DHT22;19920;52.242;20.940;2022-08-21T08:20:31;25.40;99.90
33594;DHT22;19920;52.242;20.940;2022-08-21T08:22:57;25.40;99.90
33594;DHT22;19920;52.242;20.940;2022-08-21T08:25:23;25.50;99.90
33594;DHT22;19920;52.242;20.940;2022-08-21T08:27:49;25.60;99.90
33594;DHT22;19920;52.242;20.940;2022-08-21T08:30:15;25.60;99.90
33594;DHT22;19920;52.242;20.940;2022-08-21T08:32:41;25.70;99.90
33594;DHT22;19920;52.242;20.940;2022-08-21T08:35:07;25.70;99.90
33594;DHT22;19920;52.242;20.940;2022-08-21T08:37:33;25.70;99.90
33594;DHT22;19920;52.242;20.940;2022-08-21T08:39:59;25.80;99.90
33594;DHT22;19920;52.242;20.940;2022-08-21T08:42:30;25.80;99.90
33594;DHT22;19920;52.242;20.940;2022-08-21T08:45:07;25.90;99.90
33594;DHT22;19920;52.242;20.940;2022-08-21T08:47:35;25.90;99.90
33594;DHT22;19920;52.242;20.940;2022-08-21T08:50:03;26.00;99.90
33594;DHT22;19920;52.242;20.940;2022-08-21T08:52:31;26.00;99.90
33594;DHT22;19920;52.242;20.940;2022-08-21T08:55:01;26.10;99.90
33594;DHT22;19920;52.242;20.940;2022-08-21T08:57:27;26.20;99.90
33594;DHT22;19920;52.242;20.940;2022-08-21T08:59:56;26.30;99.90
33594;DHT22;19920;52.242;20.940;2022-08-21T09:02:23;26.40;99.90
33594;DHT22;19920;52.242;20.940;2022-08-21T09:04:49;26.50;99.90
33594;DHT22;19920;52.242;20.940;2022-08-21T09:07:28;26.50;99.90
33594;DHT22;19920;52.242;20.940;2022-08-21T09:17:40;26.90;99.90
33594;DHT22;19920;52.242;20.940;2022-08-21T09:25:32;26.90;99.90
33594;DHT22;19920;52.242;20.940;2022-08-21T09:27:59;27.00;99.90
33594;DHT22;19920;52.242;20.940;2022-08-21T09:30:26;27.00;99.90
33594;DHT22;19920;52.242;20.940;2022-08-21T09:32:52;27.00;99.90
33594;DHT22;19920;52.242;20.940;2022-08-21T09:35:19;26.90;99.90
33594;DHT22;19920;52.242;20.940;2022-08-21T09:43:05;27.20;99.90
33594;DHT22;19920;52.242;20.940;2022-08-21T09:45:32;27.40;99.90
33594;DHT22;19920;52.242;20.940;2022-08-21T09:48:09;27.40;99.90
33594;DHT22;19920;52.242;20.940;2022-08-21T09:50:34;27.50;99.90
33594;DHT22;19920;52.242;20.940;2022-08-21T09:53:00;27.50;99.90
33594;DHT22;19920;52.242;20.940;2022-08-21T09:55:39;27.60;99.90
33594;DHT22;19920;52.242;20.940;2022-08-21T09:58:31;27.60;99.90
33594;DHT22;19920;52.242;20.940;2022-08-21T10:00:57;27.60;99.90
33594;DHT22;19920;52.242;20.940;2022-08-21T10:03:23;27.60;99.90
33594;DHT22;19920;52.242;20.940;2022-08-21T10:06:00;27.70;99.90
33594;DHT22;19920;52.242;20.940;2022-08-21T10:08:27;27.80;99.90
33594;DHT22;19920;52.242;20.940;2022-08-21T10:10:55;27.60;99.90
33594;DHT22;19920;52.242;20.940;2022-08-21T10:26:17;27.10;99.90
33594;DHT22;19920;52.242;20.940;2022-08-21T10:36:48;28.00;99.90
33594;DHT22;19920;52.242;20.940;2022-08-21T10:39:21;28.20;99.90
33594;DHT22;19920;52.242;20.940;2022-08-21T10:44:37;28.70;99.90
33594;DHT22;19920;52.242;20.940;2022-08-21T11:00:06;29.60;99.90
33594;DHT22;19920;52.242;20.940;2022-08-21T11:02:45;29.50;99.90
33594;DHT22;19920;52.242;20.940;2022-08-21T11:05:20;29.60;99.90
33594;DHT22;19920;52.242;20.940;2022-08-21T11:07:50;29.20;99.90
33594;DHT22;19920;52.242;20.940;2022-08-21T11:12:45;28.90;99.90
33594;DHT22;19920;52.242;20.940;2022-08-21T11:17:45;28.80;99.90
33594;DHT22;19920;52.242;20.940;2022-08-21T11:20:18;28.90;99.90
33594;DHT22;19920;52.242;20.940;2022-08-21T11:23:29;28.90;99.90
33594;DHT22;19920;52.242;20.940;2022-08-21T11:25:36;29.00;99.90
33594;DHT22;19920;52.242;20.940;2022-08-21T11:28:06;28.90;99.90
33594;DHT22;19920;52.242;20.940;2022-08-21T11:30:57;28.90;99.90
33594;DHT22;19920;52.242;20.940;2022-08-21T11:35:57;29.00;99.90
33594;DHT22;19920;52.242;20.940;2022-08-21T11:51:18;29.20;99.90
33594;DHT22;19920;52.242;20.940;2022-08-21T11:56:47;28.70;99.90
33594;DHT22;19920;52.242;20.940;2022-08-21T11:59:16;28.60;99.90
33594;DHT22;19920;52.242;20.940;2022-08-21T12:01:46;28.70;99.90
33594;DHT22;19920;52.242;20.940;2022-08-21T12:04:17;28.80;99.90
33594;DHT22;19920;52.242;20.940;2022-08-21T12:06:43;28.90;99.90
33594;DHT22;19920;52.242;20.940;2022-08-21T12:12:01;28.90;99.90
33594;DHT22;19920;52.242;20.940;2022-08-21T12:14:47;28.60;99.90
33594;DHT22;19920;52.242;20.940;2022-08-21T12:17:20;28.50;99.90
33594;DHT22;19920;52.242;20.940;2022-08-21T12:19:56;28.90;99.90
33594;DHT22;19920;52.242;20.940;2022-08-21T12:22:22;29.30;99.90
33594;DHT22;19920;52.242;20.940;2022-08-21T12:24:48;29.80;99.90
33594;DHT22;19920;52.242;20.940;2022-08-21T12:32:24;30.50;99.90
33594;DHT22;19920;52.242;20.940;2022-08-21T12:34:52;30.60;99.90
33594;DHT22;19920;52.242;20.940;2022-08-21T12:37:38;30.70;99.90
33594;DHT22;19920;52.242;20.940;2022-08-21T12:40:18;30.70;99.90
33594;DHT22;19920;52.242;20.940;2022-08-21T12:42:47;30.20;99.90
33594;DHT22;19920;52.242;20.940;2022-08-21T12:46:00;29.90;99.90
33594;DHT22;19920;52.242;20.940;2022-08-21T12:50:48;30.00;99.90
33594;DHT22;19920;52.242;20.940;2022-08-21T12:53:34;30.40;99.90
33594;DHT22;19920;52.242;20.940;2022-08-21T12:56:02;30.90;99.90
33594;DHT22;19920;52.242;20.940;2022-08-21T12:58:29;31.40;99.90
33594;DHT22;19920;52.242;20.940;2022-08-21T13:01:11;30.90;99.90
33594;DHT22;19920;52.242;20.940;2022-08-21T13:03:38;30.90;99.90
33594;DHT22;19920;52.242;20.940;2022-08-21T13:06:04;30.70;99.90
33594;DHT22;19920;52.242;20.940;2022-08-21T13:08:30;30.60;99.90
33594;DHT22;19920;52.242;20.940;2022-08-21T13:11:02;30.10;99.90
33594;DHT22;19920;52.242;20.940;2022-08-21T13:13:28;29.90;99.90
33594;DHT22;19920;52.242;20.940;2022-08-21T13:15:58;29.70;99.90
33594;DHT22;19920;52.242;20.940;2022-08-21T13:18:25;29.40;99.90
33594;DHT22;19920;52.242;20.940;2022-08-21T13:20:51;29.20;99.90
33594;DHT22;19920;52.242;20.940;2022-08-21T13:23:25;29.00;99.90
33594;DHT22;19920;52.242;20.940;2022-08-21T13:25:50;28.80;99.90
33594;DHT22;19920;52.242;20.940;2022-08-21T13:28:16;28.80;99.90
33594;DHT22;19920;52.242;20.940;2022-08-21T13:30:44;28.90;99.90
33594;DHT22;19920;52.242;20.940;2022-08-21T13:33:12;29.00;99.90
33594;DHT22;19920;52.242;20.940;2022-08-21T13:35:50;28.90;99.90
33594;DHT22;19920;52.242;20.940;2022-08-21T13:38:16;29.10;99.90
33594;DHT22;19920;52.242;20.940;2022-08-21T13:40:45;29.40;99.90
33594;DHT22;19920;52.242;20.940;2022-08-21T13:43:17;29.60;99.90
33594;DHT22;19920;52.242;20.940;2022-08-21T13:45:44;29.80;99.90
33594;DHT22;19920;52.242;20.940;2022-08-21T13:48:12;29.70;99.90
33594;DHT22;19920;52.242;20.940;2022-08-21T13:50:38;29.70;99.90
33594;DHT22;19920;52.242;20.940;2022-08-21T13:53:06;30.00;99.90
33594;DHT22;19920;52.242;20.940;2022-08-21T13:55:39;29.80;99.90
33594;DHT22;19920;52.242;20.940;2022-08-21T13:58:04;29.50;99.90
33594;DHT22;19920;52.242;20.940;2022-08-21T14:00:31;29.40;99.90
33594;DHT22;19920;52.242;20.940;2022-08-21T14:03:07;29.20;99.90
33594;DHT22;19920;52.242;20.940;2022-08-21T14:05:35;29.30;99.90
33594;DHT22;19920;52.242;20.940;2022-08-21T14:08:09;29.70;99.90
33594;DHT22;19920;52.242;20.940;2022-08-21T14:10:37;30.20;99.90
33594;DHT22;19920;52.242;20.940;2022-08-21T14:13:06;30.60;99.90
33594;DHT22;19920;52.242;20.940;2022-08-21T14:15:33;30.90;99.90
33594;DHT22;19920;52.242;20.940;2022-08-21T14:18:16;30.90;99.90
33594;DHT22;19920;52.242;20.940;2022-08-21T14:20:42;31.20;99.90
33594;DHT22;19920;52.242;20.940;2022-08-21T14:23:08;31.60;99.90
33594;DHT22;19920;52.242;20.940;2022-08-21T14:25:41;32.00;99.90
33594;DHT22;19920;52.242;20.940;2022-08-21T14:28:24;32.10;99.90
33594;DHT22;19920;52.242;20.940;2022-08-21T14:30:50;31.80;99.90
33594;DHT22;19920;52.242;20.940;2022-08-21T14:33:20;31.30;99.90
33594;DHT22;19920;52.242;20.940;2022-08-21T14:35:46;31.10;99.90
33594;DHT22;19920;52.242;20.940;2022-08-21T14:38:16;30.60;99.90
33594;DHT22;19920;52.242;20.940;2022-08-21T14:40:42;30.40;99.90
33594;DHT22;19920;52.242;20.940;2022-08-21T14:43:08;30.70;99.90
33594;DHT22;19920;52.242;20.940;2022-08-21T14:45:34;30.70;99.90
33594;DHT22;19920;52.242;20.940;2022-08-21T14:48:02;30.90;99.90
33594;DHT22;19920;52.242;20.940;2022-08-21T14:50:27;31.00;99.90
33594;DHT22;19920;52.242;20.940;2022-08-21T14:52:53;31.50;99.90
33594;DHT22;19920;52.242;20.940;2022-08-21T14:55:18;31.80;99.90
33594;DHT22;19920;52.242;20.940;2022-08-21T14:57:45;32.30;99.90
33594;DHT22;19920;52.242;20.940;2022-08-21T15:00:12;32.80;99.90
33594;DHT22;19920;52.242;20.940;2022-08-21T15:02:38;33.30;99.90
33594;DHT22;19920;52.242;20.940;2022-08-21T15:05:04;33.60;99.90
33594;DHT22;19920;52.242;20.940;2022-08-21T15:07:30;33.80;99.90
33594;DHT22;19920;52.242;20.940;2022-08-21T15:09:56;34.10;99.90
33594;DHT22;19920;52.242;20.940;2022-08-21T15:12:21;34.20;99.90
33594;DHT22;19920;52.242;20.940;2022-08-21T15:14:47;34.30;99.90
33594;DHT22;19920;52.242;20.940;2022-08-21T15:17:13;34.10;99.90
33594;DHT22;19920;52.242;20.940;2022-08-21T15:19:38;33.70;99.90
33594;DHT22;19920;52.242;20.940;2022-08-21T15:22:04;33.20;99.90
33594;DHT22;19920;52.242;20.940;2022-08-21T15:24:30;33.50;99.90
33594;DHT22;19920;52.242;20.940;2022-08-21T15:26:56;33.30;99.90
33594;DHT22;19920;52.242;20.940;2022-08-21T15:29:24;33.30;99.90
33594;DHT22;19920;52.242;20.940;2022-08-21T15:31:51;33.40;99.90
33594;DHT22;19920;52.242;20.940;2022-08-21T15:34:17;33.40;99.90
33594;DHT22;19920;52.242;20.940;2022-08-21T15:36:43;33.60;99.90
33594;DHT22;19920;52.242;20.940;2022-08-21T15:39:08;33.40;99.90
33594;DHT22;19920;52.242;20.940;2022-08-21T15:41:34;33.30;99.90
33594;DHT22;19920;52.242;20.940;2022-08-21T15:43:59;33.10;99.90
33594;DHT22;19920;52.242;20.940;2022-08-21T15:46:25;32.90;99.90
33594;DHT22;19920;52.242;20.940;2022-08-21T15:48:50;32.50;99.90
33594;DHT22;19920;52.242;20.940;2022-08-21T15:51:16;32.20;99.90
33594;DHT22;19920;52.242;20.940;2022-08-21T15:53:42;32.20;99.90
33594;DHT22;19920;52.242;20.940;2022-08-21T15:56:27;31.60;99.90
33594;DHT22;19920;52.242;20.940;2022-08-21T15:58:57;31.40;99.90
33594;DHT22;19920;52.242;20.940;2022-08-21T16:01:23;30.90;99.90
33594;DHT22;19920;52.242;20.940;2022-08-21T16:03:49;30.60;99.90
33594;DHT22;19920;52.242;20.940;2022-08-21T16:06:15;30.40;99.90
33594;DHT22;19920;52.242;20.940;2022-08-21T16:08:41;30.10;99.90
33594;DHT22;19920;52.242;20.940;2022-08-21T16:11:06;29.70;99.90
33594;DHT22;19920;52.242;20.940;2022-08-21T16:13:35;29.50;99.90
33594;DHT22;19920;52.242;20.940;2022-08-21T16:16:01;29.30;99.90
33594;DHT22;19920;52.242;20.940;2022-08-21T16:18:26;29.10;99.90
33594;DHT22;19920;52.242;20.940;2022-08-21T16:20:52;28.80;99.90
33594;DHT22;19920;52.242;20.940;2022-08-21T16:23:17;28.70;99.90
33594;DHT22;19920;52.242;20.940;2022-08-21T16:25:43;28.50;99.90
33594;DHT22;19920;52.242;20.940;2022-08-21T16:28:10;28.50;99.90
33594;DHT22;19920;52.242;20.940;2022-08-21T16:30:37;28.40;99.90
33594;DHT22;19920;52.242;20.940;2022-08-21T16:33:03;28.20;99.90
33594;DHT22;19920;52.242;20.940;2022-08-21T16:35:29;28.00;99.90
33594;DHT22;19920;52.242;20.940;2022-08-21T16:37:55;27.90;99.90
33594;DHT22;19920;52.242;20.940;2022-08-21T16:40:21;27.90;99.90
33594;DHT22;19920;52.242;20.940;2022-08-21T16:42:47;27.80;99.90
33594;DHT22;19920;52.242;20.940;2022-08-21T16:45:13;27.70;99.90
33594;DHT22;19920;52.242;20.940;2022-08-21T16:47:39;27.60;99.90
33594;DHT22;19920;52.242;20.940;2022-08-21T16:50:05;27.50;99.90